SJV638 WIII-WAOO
Flight info
| Callsign | SJV638 |
|---|---|
| Flight time | 1h 27m |
| Altitude | 35000 |
| Route | EGUKO T9 BUTNU |
| Aircraft | A320/M-SDE3FGHIRWY/LB1 |
Departure
| Time | 2026-04-11 10:07 |
|---|---|
| Airport | Soekarno-Hatta International Airport (WIII) |
Arrival
| Time | 2026-04-11 11:35 |
|---|---|
| Airport | Syamsudin Noor International Airport (WAOO) |
| Time | Latitude | Longitude | Altitude | Speed | Heading |
|---|---|---|---|---|---|
| 2026-04-11 09:31 | -6.12043 | 106.65082 | 0 ft | 0 kts | 146° |
| 2026-04-11 09:36 | -6.12042 | 106.65082 | 0 ft | 0 kts | 146° |
| 2026-04-11 09:56 | -6.12034 | 106.65076 | 0 ft | 2 kts | 146° |
| 2026-04-11 09:56 | -6.12020 | 106.65067 | 38 ft | 2 kts | 146° |
| 2026-04-11 09:56 | -6.12007 | 106.65057 | 34 ft | 2 kts | 138° |
| 2026-04-11 09:56 | -6.11995 | 106.65044 | 35 ft | 3 kts | 110° |
| 2026-04-11 09:57 | -6.11992 | 106.65029 | 35 ft | 0 kts | 84° |
| 2026-04-11 09:57 | -6.11992 | 106.65030 | 35 ft | 0 kts | 84° |
| 2026-04-11 09:57 | -6.11992 | 106.65020 | 35 ft | 3 kts | 70° |
| 2026-04-11 09:58 | -6.11994 | 106.65016 | 35 ft | 0 kts | 59° |
| 2026-04-11 09:58 | -6.11993 | 106.65018 | 35 ft | 0 kts | 59° |
| 2026-04-11 09:59 | -6.11990 | 106.65020 | 34 ft | 1 kts | 46° |
| 2026-04-11 09:59 | -6.11978 | 106.65023 | 35 ft | 2 kts | 10° |
| 2026-04-11 09:59 | -6.11958 | 106.65019 | 36 ft | 4 kts | 347° |
| 2026-04-11 09:59 | -6.11927 | 106.65008 | 38 ft | 6 kts | 340° |
| 2026-04-11 10:00 | -6.11885 | 106.64993 | 38 ft | 7 kts | 346° |
| 2026-04-11 10:00 | -6.11838 | 106.65013 | 38 ft | 8 kts | 52° |
| 2026-04-11 10:00 | -6.11813 | 106.65072 | 38 ft | 10 kts | 68° |
| 2026-04-11 10:00 | -6.11785 | 106.65144 | 38 ft | 12 kts | 68° |
| 2026-04-11 10:01 | -6.11752 | 106.65227 | 38 ft | 14 kts | 68° |
| 2026-04-11 10:01 | -6.11714 | 106.65320 | 38 ft | 15 kts | 68° |
| 2026-04-11 10:01 | -6.11672 | 106.65427 | 37 ft | 17 kts | 68° |
| 2026-04-11 10:01 | -6.11626 | 106.65543 | 37 ft | 15 kts | 68° |
| 2026-04-11 10:02 | -6.11595 | 106.65622 | 36 ft | 12 kts | 68° |
| 2026-04-11 10:02 | -6.11560 | 106.65709 | 37 ft | 14 kts | 68° |
| 2026-04-11 10:02 | -6.11521 | 106.65807 | 37 ft | 16 kts | 69° |
| 2026-04-11 10:02 | -6.11477 | 106.65916 | 36 ft | 18 kts | 68° |
| 2026-04-11 10:03 | -6.11429 | 106.66036 | 37 ft | 19 kts | 68° |
| 2026-04-11 10:03 | -6.11385 | 106.66146 | 38 ft | 16 kts | 69° |
| 2026-04-11 10:03 | -6.11343 | 106.66254 | 38 ft | 17 kts | 68° |
| 2026-04-11 10:03 | -6.11295 | 106.66372 | 38 ft | 19 kts | 68° |
| 2026-04-11 10:04 | -6.11242 | 106.66503 | 38 ft | 21 kts | 68° |
| 2026-04-11 10:04 | -6.11186 | 106.66645 | 37 ft | 20 kts | 68° |
| 2026-04-11 10:04 | -6.11147 | 106.66745 | 37 ft | 15 kts | 68° |
| 2026-04-11 10:04 | -6.11110 | 106.66834 | 37 ft | 13 kts | 68° |
| 2026-04-11 10:05 | -6.11076 | 106.66919 | 36 ft | 9 kts | 68° |
| 2026-04-11 10:05 | -6.11037 | 106.66968 | 37 ft | 10 kts | 26° |
| 2026-04-11 10:05 | -6.10985 | 106.66960 | 35 ft | 6 kts | 329° |
| 2026-04-11 10:05 | -6.10952 | 106.66932 | 36 ft | 8 kts | 315° |
| 2026-04-11 10:06 | -6.10934 | 106.66914 | 36 ft | 4 kts | 315° |
| 2026-04-11 10:06 | -6.10909 | 106.66890 | 36 ft | 6 kts | 314° |
| 2026-04-11 10:06 | -6.10907 | 106.66848 | 35 ft | 4 kts | 248° |
| 2026-04-11 10:06 | -6.10926 | 106.66801 | 35 ft | 21 kts | 248° |
| 2026-04-11 10:07 | -6.11070 | 106.66443 | 35 ft | 87 kts | 247° |
| 2026-04-11 10:07 | -6.11362 | 106.65715 | 37 ft | 136 kts | 248° |
| 2026-04-11 10:07 | -6.11757 | 106.64723 | 174 ft | 162 kts | 249° |
| 2026-04-11 10:07 | -6.12178 | 106.63683 | 741 ft | 161 kts | 250° |
| 2026-04-11 10:08 | -6.12568 | 106.62617 | 1301 ft | 164 kts | 260° |
| 2026-04-11 10:08 | -6.12415 | 106.61491 | 1779 ft | 171 kts | 290° |
| 2026-04-11 10:08 | -6.11973 | 106.60296 | 1938 ft | 193 kts | 292° |
| 2026-04-11 10:08 | -6.11467 | 106.58965 | 2060 ft | 218 kts | 290° |
| 2026-04-11 10:09 | -6.10936 | 106.57488 | 2571 ft | 228 kts | 290° |
| 2026-04-11 10:09 | -6.10404 | 106.55966 | 3323 ft | 231 kts | 289° |
| 2026-04-11 10:09 | -6.09908 | 106.54426 | 4075 ft | 234 kts | 288° |
| 2026-04-11 10:09 | -6.09415 | 106.52851 | 4762 ft | 239 kts | 287° |
| 2026-04-11 10:10 | -6.08670 | 106.51362 | 5458 ft | 243 kts | 316° |
| 2026-04-11 10:10 | -6.07199 | 106.50553 | 6183 ft | 245 kts | 347° |
| 2026-04-11 10:10 | -6.05491 | 106.50460 | 6925 ft | 247 kts | 7° |
| 2026-04-11 10:10 | -6.03842 | 106.50925 | 7706 ft | 248 kts | 24° |
| 2026-04-11 10:11 | -6.02362 | 106.51834 | 8414 ft | 252 kts | 39° |
| 2026-04-11 10:11 | -6.01187 | 106.53127 | 9068 ft | 257 kts | 56° |
| 2026-04-11 10:11 | -6.00417 | 106.54760 | 9749 ft | 262 kts | 72° |
| 2026-04-11 10:11 | -6.00085 | 106.56624 | 10123 ft | 281 kts | 82° |
| 2026-04-11 10:12 | -5.99838 | 106.58651 | 10314 ft | 303 kts | 81° |
| 2026-04-11 10:12 | -5.99549 | 106.60829 | 10451 ft | 326 kts | 80° |
| 2026-04-11 10:12 | -5.99184 | 106.63149 | 10584 ft | 347 kts | 79° |
| 2026-04-11 10:12 | -5.98744 | 106.65592 | 10755 ft | 363 kts | 78° |
| 2026-04-11 10:13 | -5.98264 | 106.68117 | 11197 ft | 370 kts | 78° |
| 2026-04-11 10:13 | -5.97775 | 106.70667 | 11742 ft | 374 kts | 78° |
| 2026-04-11 10:13 | -5.97281 | 106.73249 | 12290 ft | 378 kts | 78° |
| 2026-04-11 10:13 | -5.96786 | 106.75858 | 12824 ft | 382 kts | 78° |
| 2026-04-11 10:14 | -5.96292 | 106.78490 | 13341 ft | 386 kts | 78° |
| 2026-04-11 10:14 | -5.95798 | 106.81151 | 13853 ft | 389 kts | 79° |
| 2026-04-11 10:14 | -5.95308 | 106.83811 | 14349 ft | 393 kts | 79° |
| 2026-04-11 10:14 | -5.94813 | 106.86521 | 14849 ft | 396 kts | 79° |
| 2026-04-11 10:15 | -5.94319 | 106.89249 | 15359 ft | 398 kts | 80° |
| 2026-04-11 10:15 | -5.93820 | 106.91999 | 15858 ft | 401 kts | 80° |
| 2026-04-11 10:15 | -5.93272 | 106.94749 | 16351 ft | 404 kts | 75° |
| 2026-04-11 10:15 | -5.92220 | 106.97374 | 16828 ft | 407 kts | 61° |
| 2026-04-11 10:16 | -5.90575 | 106.99692 | 17286 ft | 410 kts | 47° |
| 2026-04-11 10:16 | -5.88426 | 107.01579 | 17749 ft | 413 kts | 34° |
| 2026-04-11 10:16 | -5.85881 | 107.02927 | 18202 ft | 416 kts | 21° |
| 2026-04-11 10:16 | -5.83166 | 107.03938 | 18642 ft | 418 kts | 20° |
| 2026-04-11 10:17 | -5.80426 | 107.04951 | 19091 ft | 421 kts | 20° |
| 2026-04-11 10:17 | -5.77669 | 107.05973 | 19542 ft | 423 kts | 20° |
| 2026-04-11 10:17 | -5.74901 | 107.07002 | 19970 ft | 425 kts | 20° |
| 2026-04-11 10:17 | -5.72141 | 107.08084 | 20397 ft | 427 kts | 25° |
| 2026-04-11 10:18 | -5.69580 | 107.09605 | 20791 ft | 429 kts | 37° |
| 2026-04-11 10:18 | -5.67362 | 107.11611 | 21184 ft | 431 kts | 49° |
| 2026-04-11 10:18 | -5.65576 | 107.14024 | 21571 ft | 433 kts | 60° |
| 2026-04-11 10:18 | -5.64297 | 107.16764 | 21937 ft | 434 kts | 71° |
| 2026-04-11 10:19 | -5.63334 | 107.19642 | 22280 ft | 437 kts | 71° |
| 2026-04-11 10:19 | -5.62365 | 107.22541 | 22624 ft | 439 kts | 71° |
| 2026-04-11 10:19 | -5.61383 | 107.25455 | 22965 ft | 441 kts | 72° |
| 2026-04-11 10:19 | -5.60395 | 107.28366 | 23375 ft | 442 kts | 71° |
| 2026-04-11 10:20 | -5.59401 | 107.31289 | 23755 ft | 443 kts | 71° |
| 2026-04-11 10:20 | -5.58404 | 107.34223 | 24098 ft | 445 kts | 71° |
| 2026-04-11 10:20 | -5.57406 | 107.37169 | 24445 ft | 446 kts | 71° |
| 2026-04-11 10:20 | -5.56403 | 107.40128 | 24768 ft | 448 kts | 71° |
| 2026-04-11 10:21 | -5.55408 | 107.43062 | 25074 ft | 450 kts | 71° |
| 2026-04-11 10:21 | -5.54397 | 107.46047 | 25374 ft | 452 kts | 71° |
| 2026-04-11 10:21 | -5.53385 | 107.49038 | 25690 ft | 454 kts | 71° |
| 2026-04-11 10:21 | -5.52368 | 107.52049 | 26000 ft | 456 kts | 71° |
| 2026-04-11 10:22 | -5.51347 | 107.55069 | 26290 ft | 458 kts | 71° |
| 2026-04-11 10:22 | -5.50320 | 107.58106 | 26570 ft | 460 kts | 71° |
| 2026-04-11 10:22 | -5.49289 | 107.61151 | 26872 ft | 462 kts | 71° |
| 2026-04-11 10:22 | -5.48255 | 107.64201 | 27264 ft | 461 kts | 71° |
| 2026-04-11 10:23 | -5.47237 | 107.67209 | 27669 ft | 459 kts | 72° |
| 2026-04-11 10:23 | -5.46212 | 107.70238 | 28059 ft | 459 kts | 72° |
| 2026-04-11 10:23 | -5.45173 | 107.73308 | 28450 ft | 458 kts | 72° |
| 2026-04-11 10:23 | -5.44158 | 107.76296 | 28824 ft | 458 kts | 71° |
| 2026-04-11 10:24 | -5.42886 | 107.79222 | 29192 ft | 458 kts | 62° |
| 2026-04-11 10:24 | -5.41172 | 107.81921 | 29557 ft | 458 kts | 55° |
| 2026-04-11 10:24 | -5.39328 | 107.84534 | 29936 ft | 458 kts | 55° |
| 2026-04-11 10:24 | -5.37489 | 107.87147 | 30309 ft | 458 kts | 56° |
| 2026-04-11 10:25 | -5.35655 | 107.89758 | 30676 ft | 458 kts | 56° |
| 2026-04-11 10:25 | -5.33823 | 107.92370 | 31038 ft | 457 kts | 56° |
| 2026-04-11 10:25 | -5.31994 | 107.94976 | 31408 ft | 457 kts | 56° |
| 2026-04-11 10:25 | -5.30166 | 107.97582 | 31776 ft | 456 kts | 56° |
| 2026-04-11 10:26 | -5.28343 | 108.00179 | 32141 ft | 456 kts | 56° |
| 2026-04-11 10:26 | -5.26518 | 108.02780 | 32499 ft | 455 kts | 56° |
| 2026-04-11 10:26 | -5.24698 | 108.05376 | 32857 ft | 455 kts | 56° |
| 2026-04-11 10:26 | -5.22880 | 108.07972 | 33208 ft | 454 kts | 56° |
| 2026-04-11 10:27 | -5.21063 | 108.10563 | 33544 ft | 454 kts | 56° |
| 2026-04-11 10:27 | -5.19250 | 108.13150 | 33871 ft | 453 kts | 56° |
| 2026-04-11 10:27 | -5.17437 | 108.15735 | 34180 ft | 453 kts | 56° |
| 2026-04-11 10:27 | -5.15621 | 108.18322 | 34484 ft | 452 kts | 56° |
| 2026-04-11 10:28 | -5.13836 | 108.20867 | 34768 ft | 452 kts | 56° |
| 2026-04-11 10:28 | -5.10192 | 108.26054 | 34869 ft | 460 kts | 56° |
| 2026-04-11 10:29 | -5.06473 | 108.31353 | 34865 ft | 467 kts | 56° |
| 2026-04-11 10:29 | -5.02734 | 108.36681 | 34865 ft | 468 kts | 56° |
| 2026-04-11 10:30 | -4.99590 | 108.41154 | 34865 ft | 468 kts | 56° |
| 2026-04-11 10:30 | -4.95835 | 108.46498 | 34866 ft | 468 kts | 56° |
| 2026-04-11 10:31 | -4.92080 | 108.51837 | 34870 ft | 469 kts | 56° |
| 2026-04-11 10:31 | -4.88324 | 108.57182 | 34874 ft | 469 kts | 56° |
| 2026-04-11 10:32 | -4.84568 | 108.62534 | 34876 ft | 469 kts | 56° |
| 2026-04-11 10:32 | -4.80834 | 108.67855 | 34878 ft | 469 kts | 56° |
| 2026-04-11 10:33 | -4.77070 | 108.73201 | 34879 ft | 469 kts | 56° |
| 2026-04-11 10:33 | -4.73313 | 108.78550 | 34879 ft | 469 kts | 56° |
| 2026-04-11 10:34 | -4.69979 | 108.84143 | 34878 ft | 467 kts | 65° |
| 2026-04-11 10:34 | -4.67185 | 108.90025 | 34874 ft | 467 kts | 66° |
| 2026-04-11 10:35 | -4.64384 | 108.95895 | 34879 ft | 467 kts | 66° |
| 2026-04-11 10:35 | -4.61587 | 109.01761 | 34881 ft | 466 kts | 66° |
| 2026-04-11 10:36 | -4.58804 | 109.07622 | 34878 ft | 466 kts | 66° |
| 2026-04-11 10:36 | -4.56020 | 109.13489 | 34878 ft | 466 kts | 66° |
| 2026-04-11 10:37 | -4.53235 | 109.19347 | 34880 ft | 466 kts | 66° |
| 2026-04-11 10:37 | -4.50441 | 109.25207 | 34881 ft | 466 kts | 66° |
| 2026-04-11 10:38 | -4.47654 | 109.31064 | 34877 ft | 465 kts | 66° |
| 2026-04-11 10:38 | -4.43490 | 109.39803 | 34877 ft | 465 kts | 66° |
| 2026-04-11 10:39 | -4.40696 | 109.45657 | 34874 ft | 465 kts | 66° |
| 2026-04-11 10:39 | -4.37906 | 109.51505 | 34879 ft | 465 kts | 66° |
| 2026-04-11 10:40 | -4.35119 | 109.57359 | 34876 ft | 465 kts | 66° |
| 2026-04-11 10:40 | -4.32328 | 109.63202 | 34874 ft | 465 kts | 66° |
| 2026-04-11 10:41 | -4.29539 | 109.69044 | 34872 ft | 464 kts | 66° |
| 2026-04-11 10:41 | -4.26754 | 109.74885 | 34870 ft | 464 kts | 66° |
| 2026-04-11 10:42 | -4.23976 | 109.80729 | 34871 ft | 464 kts | 66° |
| 2026-04-11 10:42 | -4.21199 | 109.86570 | 34869 ft | 465 kts | 66° |
| 2026-04-11 10:43 | -4.16994 | 109.95332 | 34873 ft | 465 kts | 66° |
| 2026-04-11 10:44 | -4.14196 | 110.01173 | 34872 ft | 465 kts | 66° |
| 2026-04-11 10:44 | -4.11430 | 110.06980 | 34873 ft | 465 kts | 66° |
| 2026-04-11 10:45 | -4.08644 | 110.12820 | 34878 ft | 464 kts | 66° |
| 2026-04-11 10:45 | -4.05860 | 110.18657 | 34877 ft | 464 kts | 66° |
| 2026-04-11 10:46 | -4.03075 | 110.24488 | 34880 ft | 464 kts | 65° |
| 2026-04-11 10:46 | -4.00283 | 110.30312 | 34880 ft | 464 kts | 65° |
| 2026-04-11 10:47 | -3.97490 | 110.36137 | 34879 ft | 464 kts | 65° |
| 2026-04-11 10:47 | -3.94705 | 110.41970 | 34877 ft | 464 kts | 66° |
| 2026-04-11 10:48 | -3.91934 | 110.47770 | 34876 ft | 464 kts | 66° |
| 2026-04-11 10:48 | -3.89130 | 110.53631 | 34876 ft | 464 kts | 65° |
| 2026-04-11 10:49 | -3.86351 | 110.59417 | 34877 ft | 464 kts | 65° |
| 2026-04-11 10:49 | -3.83554 | 110.65245 | 34880 ft | 464 kts | 65° |
| 2026-04-11 10:50 | -3.80756 | 110.71086 | 34868 ft | 465 kts | 65° |
| 2026-04-11 10:50 | -3.77962 | 110.76948 | 34856 ft | 466 kts | 65° |
| 2026-04-11 10:51 | -3.75150 | 110.82812 | 34854 ft | 468 kts | 65° |
| 2026-04-11 10:51 | -3.72349 | 110.88644 | 34857 ft | 468 kts | 65° |
| 2026-04-11 10:52 | -3.69532 | 110.94526 | 34862 ft | 469 kts | 65° |
| 2026-04-11 10:52 | -3.66707 | 111.00420 | 34867 ft | 469 kts | 65° |
| 2026-04-11 10:53 | -3.63883 | 111.06308 | 34874 ft | 469 kts | 65° |
| 2026-04-11 10:53 | -3.61047 | 111.12200 | 34877 ft | 470 kts | 65° |
| 2026-04-11 10:54 | -3.58220 | 111.18105 | 34878 ft | 470 kts | 65° |
| 2026-04-11 10:54 | -3.55394 | 111.24007 | 34884 ft | 470 kts | 65° |
| 2026-04-11 10:55 | -3.52555 | 111.29918 | 34880 ft | 471 kts | 65° |
| 2026-04-11 10:55 | -3.49741 | 111.35790 | 34876 ft | 471 kts | 65° |
| 2026-04-11 10:56 | -3.46899 | 111.41699 | 34877 ft | 471 kts | 65° |
| 2026-04-11 10:56 | -3.44053 | 111.47622 | 34877 ft | 471 kts | 65° |
| 2026-04-11 10:57 | -3.41219 | 111.53536 | 34875 ft | 471 kts | 65° |
| 2026-04-11 10:57 | -3.38387 | 111.59443 | 34877 ft | 471 kts | 65° |
| 2026-04-11 10:58 | -3.35547 | 111.65349 | 34873 ft | 471 kts | 65° |
| 2026-04-11 10:58 | -3.32704 | 111.71251 | 34876 ft | 471 kts | 65° |
| 2026-04-11 10:59 | -3.29859 | 111.77153 | 34874 ft | 471 kts | 65° |
| 2026-04-11 10:59 | -3.27018 | 111.83058 | 34871 ft | 471 kts | 65° |
| 2026-04-11 11:00 | -3.24195 | 111.88927 | 34860 ft | 471 kts | 65° |
| 2026-04-11 11:00 | -3.21353 | 111.94839 | 34857 ft | 472 kts | 65° |
| 2026-04-11 11:01 | -3.18508 | 112.00752 | 34857 ft | 472 kts | 65° |
| 2026-04-11 11:01 | -3.15666 | 112.06668 | 34859 ft | 472 kts | 65° |
| 2026-04-11 11:02 | -3.12818 | 112.12592 | 34861 ft | 472 kts | 65° |
| 2026-04-11 11:02 | -3.09965 | 112.18523 | 34864 ft | 473 kts | 65° |
| 2026-04-11 11:03 | -3.07113 | 112.24448 | 34867 ft | 473 kts | 65° |
| 2026-04-11 11:03 | -3.04257 | 112.30374 | 34870 ft | 473 kts | 65° |
| 2026-04-11 11:04 | -3.01647 | 112.36419 | 34875 ft | 472 kts | 69° |
| 2026-04-11 11:04 | -2.99322 | 112.42569 | 34873 ft | 472 kts | 71° |
| 2026-04-11 11:05 | -2.97002 | 112.48706 | 34894 ft | 472 kts | 70° |
| 2026-04-11 11:05 | -2.94615 | 112.54769 | 34906 ft | 471 kts | 69° |
| 2026-04-11 11:06 | -2.92179 | 112.60847 | 34908 ft | 470 kts | 69° |
| 2026-04-11 11:06 | -2.89763 | 112.66923 | 34908 ft | 470 kts | 70° |
| 2026-04-11 11:07 | -2.87368 | 112.73005 | 34907 ft | 470 kts | 70° |
| 2026-04-11 11:07 | -2.84972 | 112.79080 | 34906 ft | 469 kts | 70° |
| 2026-04-11 11:08 | -2.82562 | 112.85160 | 34905 ft | 469 kts | 70° |
| 2026-04-11 11:08 | -2.80159 | 112.91230 | 34905 ft | 469 kts | 70° |
| 2026-04-11 11:09 | -2.77752 | 112.97308 | 34905 ft | 469 kts | 70° |
| 2026-04-11 11:09 | -2.75354 | 113.03380 | 34904 ft | 469 kts | 69° |
| 2026-04-11 11:10 | -2.72952 | 113.09449 | 34906 ft | 469 kts | 69° |
| 2026-04-11 11:10 | -2.70548 | 113.15520 | 34906 ft | 469 kts | 69° |
| 2026-04-11 11:11 | -2.68161 | 113.21548 | 34906 ft | 469 kts | 69° |
| 2026-04-11 11:11 | -2.65760 | 113.27614 | 34906 ft | 469 kts | 69° |
| 2026-04-11 11:12 | -2.63355 | 113.33687 | 34906 ft | 469 kts | 70° |
| 2026-04-11 11:12 | -2.61958 | 113.39996 | 34903 ft | 465 kts | 89° |
| 2026-04-11 11:13 | -2.62809 | 113.46366 | 34899 ft | 462 kts | 109° |
| 2026-04-11 11:13 | -2.65047 | 113.52386 | 34895 ft | 462 kts | 111° |
| 2026-04-11 11:14 | -2.67317 | 113.58414 | 34895 ft | 463 kts | 111° |
| 2026-04-11 11:14 | -2.69567 | 113.64399 | 34896 ft | 463 kts | 111° |
| 2026-04-11 11:15 | -2.71835 | 113.70440 | 34887 ft | 464 kts | 111° |
| 2026-04-11 11:15 | -2.74119 | 113.76494 | 34875 ft | 466 kts | 111° |
| 2026-04-11 11:16 | -2.76407 | 113.82580 | 34874 ft | 468 kts | 111° |
| 2026-04-11 11:16 | -2.78586 | 113.88725 | 34744 ft | 470 kts | 109° |
| 2026-04-11 11:16 | -2.79278 | 113.90786 | 34584 ft | 470 kts | 109° |
| 2026-04-11 11:17 | -2.80304 | 113.93895 | 34326 ft | 467 kts | 109° |
| 2026-04-11 11:17 | -2.81305 | 113.96953 | 34054 ft | 462 kts | 109° |
| 2026-04-11 11:17 | -2.82329 | 114.00052 | 33341 ft | 473 kts | 109° |
| 2026-04-11 11:17 | -2.83375 | 114.03184 | 32588 ft | 475 kts | 109° |
| 2026-04-11 11:18 | -2.84432 | 114.06321 | 31851 ft | 479 kts | 109° |
| 2026-04-11 11:18 | -2.85504 | 114.09471 | 31089 ft | 479 kts | 109° |
| 2026-04-11 11:18 | -2.86580 | 114.12626 | 30338 ft | 479 kts | 109° |
| 2026-04-11 11:18 | -2.87653 | 114.15780 | 29586 ft | 478 kts | 109° |
| 2026-04-11 11:19 | -2.88719 | 114.18931 | 28834 ft | 482 kts | 109° |
| 2026-04-11 11:19 | -2.89793 | 114.22110 | 28082 ft | 482 kts | 109° |
| 2026-04-11 11:19 | -2.90865 | 114.25284 | 27330 ft | 480 kts | 109° |
| 2026-04-11 11:19 | -2.91936 | 114.28454 | 26575 ft | 482 kts | 109° |
| 2026-04-11 11:20 | -2.93007 | 114.31626 | 25825 ft | 480 kts | 109° |
| 2026-04-11 11:20 | -2.94075 | 114.34787 | 25072 ft | 477 kts | 109° |
| 2026-04-11 11:20 | -2.95133 | 114.37916 | 24312 ft | 472 kts | 109° |
| 2026-04-11 11:20 | -2.96168 | 114.40982 | 23574 ft | 477 kts | 108° |
| 2026-04-11 11:21 | -2.97237 | 114.44154 | 22823 ft | 483 kts | 108° |
| 2026-04-11 11:21 | -2.98308 | 114.47339 | 22072 ft | 482 kts | 108° |
| 2026-04-11 11:21 | -2.99375 | 114.50501 | 21318 ft | 478 kts | 108° |
| 2026-04-11 11:21 | -3.00437 | 114.53638 | 20567 ft | 474 kts | 109° |
| 2026-04-11 11:22 | -3.01492 | 114.56748 | 19821 ft | 470 kts | 109° |
| 2026-04-11 11:22 | -3.02536 | 114.59828 | 19060 ft | 465 kts | 109° |
| 2026-04-11 11:22 | -3.03573 | 114.62890 | 18311 ft | 460 kts | 109° |
| 2026-04-11 11:22 | -3.04593 | 114.65904 | 17561 ft | 454 kts | 110° |
| 2026-04-11 11:23 | -3.05598 | 114.68880 | 16812 ft | 448 kts | 110° |
| 2026-04-11 11:23 | -3.06585 | 114.71811 | 16069 ft | 441 kts | 110° |
| 2026-04-11 11:23 | -3.07678 | 114.74649 | 15322 ft | 433 kts | 118° |
| 2026-04-11 11:23 | -3.09349 | 114.77115 | 14570 ft | 425 kts | 129° |
| 2026-04-11 11:24 | -3.11172 | 114.79431 | 13806 ft | 421 kts | 129° |
| 2026-04-11 11:24 | -3.12980 | 114.81723 | 13064 ft | 418 kts | 130° |
| 2026-04-11 11:24 | -3.14779 | 114.83998 | 12311 ft | 415 kts | 129° |
| 2026-04-11 11:24 | -3.16537 | 114.86223 | 11577 ft | 412 kts | 129° |
| 2026-04-11 11:25 | -3.18305 | 114.88463 | 11042 ft | 408 kts | 129° |
| 2026-04-11 11:25 | -3.20060 | 114.90687 | 10539 ft | 407 kts | 129° |
| 2026-04-11 11:25 | -3.21810 | 114.92908 | 10038 ft | 405 kts | 129° |
| 2026-04-11 11:25 | -3.23544 | 114.95108 | 9536 ft | 398 kts | 129° |
| 2026-04-11 11:26 | -3.25228 | 114.97250 | 9140 ft | 386 kts | 129° |
| 2026-04-11 11:26 | -3.26862 | 114.99328 | 8764 ft | 374 kts | 129° |
| 2026-04-11 11:26 | -3.28437 | 115.01329 | 8383 ft | 354 kts | 129° |
| 2026-04-11 11:26 | -3.29916 | 115.03210 | 8009 ft | 334 kts | 129° |
| 2026-04-11 11:27 | -3.31395 | 115.04910 | 7643 ft | 314 kts | 141° |
| 2026-04-11 11:27 | -3.33199 | 115.06021 | 7258 ft | 298 kts | 160° |
| 2026-04-11 11:27 | -3.35141 | 115.06453 | 6890 ft | 284 kts | 179° |
| 2026-04-11 11:27 | -3.37080 | 115.06271 | 6516 ft | 279 kts | 192° |
| 2026-04-11 11:28 | -3.38971 | 115.05883 | 6139 ft | 274 kts | 192° |
| 2026-04-11 11:28 | -3.40809 | 115.05512 | 5763 ft | 265 kts | 192° |
| 2026-04-11 11:28 | -3.42573 | 115.05158 | 5609 ft | 255 kts | 192° |
| 2026-04-11 11:28 | -3.42979 | 115.05077 | 5573 ft | 255 kts | 192° |
| 2026-04-11 11:29 | -3.46431 | 115.04379 | 5316 ft | 242 kts | 194° |
| 2026-04-11 11:29 | -3.47876 | 115.03673 | 5127 ft | 231 kts | 223° |
| 2026-04-11 11:29 | -3.48720 | 115.02354 | 4884 ft | 226 kts | 253° |
| 2026-04-11 11:30 | -3.48777 | 115.00775 | 4418 ft | 230 kts | 280° |
| 2026-04-11 11:30 | -3.48479 | 114.99234 | 4022 ft | 226 kts | 280° |
| 2026-04-11 11:30 | -3.48188 | 114.97701 | 3635 ft | 222 kts | 280° |
| 2026-04-11 11:30 | -3.47907 | 114.96195 | 3262 ft | 218 kts | 279° |
| 2026-04-11 11:31 | -3.47633 | 114.94713 | 2905 ft | 214 kts | 279° |
| 2026-04-11 11:31 | -3.47367 | 114.93280 | 2755 ft | 207 kts | 279° |
| 2026-04-11 11:31 | -3.47107 | 114.91881 | 2593 ft | 201 kts | 279° |
| 2026-04-11 11:31 | -3.46860 | 114.90545 | 2417 ft | 190 kts | 279° |
| 2026-04-11 11:32 | -3.46626 | 114.89276 | 2236 ft | 179 kts | 279° |
| 2026-04-11 11:32 | -3.46409 | 114.88102 | 2097 ft | 163 kts | 279° |
| 2026-04-11 11:32 | -3.46209 | 114.87027 | 1950 ft | 154 kts | 279° |
| 2026-04-11 11:32 | -3.46018 | 114.85991 | 1738 ft | 150 kts | 278° |
| 2026-04-11 11:33 | -3.45834 | 114.84967 | 1551 ft | 149 kts | 278° |
| 2026-04-11 11:33 | -3.45652 | 114.83952 | 1341 ft | 148 kts | 278° |
| 2026-04-11 11:33 | -3.45472 | 114.82943 | 1141 ft | 147 kts | 278° |
| 2026-04-11 11:33 | -3.45289 | 114.81936 | 949 ft | 147 kts | 279° |
| 2026-04-11 11:34 | -3.45108 | 114.80930 | 785 ft | 147 kts | 279° |
| 2026-04-11 11:34 | -3.44924 | 114.79929 | 580 ft | 146 kts | 279° |
| 2026-04-11 11:34 | -3.44739 | 114.78930 | 394 ft | 145 kts | 281° |
| 2026-04-11 11:34 | -3.44552 | 114.77952 | 218 ft | 144 kts | 280° |
| 2026-04-11 11:35 | -3.44363 | 114.76973 | 76 ft | 136 kts | 281° |
| 2026-04-11 11:35 | -3.44229 | 114.76244 | 73 ft | 65 kts | 280° |
| 2026-04-11 11:35 | -3.44188 | 114.76028 | 72 ft | 21 kts | 282° |
| 2026-04-11 11:35 | -3.44161 | 114.75878 | 68 ft | 23 kts | 281° |
| 2026-04-11 11:36 | -3.44134 | 114.75728 | 69 ft | 14 kts | 279° |
| 2026-04-11 11:36 | -3.44116 | 114.75635 | 71 ft | 15 kts | 282° |
| 2026-04-11 11:36 | -3.44090 | 114.75558 | 68 ft | 11 kts | 291° |
| 2026-04-11 11:36 | -3.44106 | 114.75551 | 69 ft | 3 kts | 98° |
| 2026-04-11 11:37 | -3.44107 | 114.75582 | 68 ft | 5 kts | 92° |
| 2026-04-11 11:37 | -3.44112 | 114.75626 | 75 ft | 7 kts | 95° |
| 2026-04-11 11:37 | -3.44084 | 114.75666 | 67 ft | 5 kts | 24° |
| 2026-04-11 11:37 | -3.44041 | 114.75675 | 75 ft | 7 kts | 12° |
| 2026-04-11 11:38 | -3.43985 | 114.75686 | 70 ft | 8 kts | 10° |
| 2026-04-11 11:38 | -3.43937 | 114.75695 | 70 ft | 4 kts | 11° |
| 2026-04-11 11:38 | -3.43904 | 114.75702 | 75 ft | 6 kts | 17° |
| 2026-04-11 11:38 | -3.43880 | 114.75738 | 72 ft | 8 kts | 82° |
| 2026-04-11 11:39 | -3.43888 | 114.75798 | 75 ft | 10 kts | 101° |
| 2026-04-11 11:39 | -3.43896 | 114.75838 | 71 ft | 5 kts | 101° |
| 2026-04-11 11:39 | -3.43899 | 114.75857 | 75 ft | 3 kts | 101° |
| 2026-04-11 11:39 | -3.43904 | 114.75882 | 75 ft | 4 kts | 101° |
| 2026-04-11 11:40 | -3.43892 | 114.75913 | 75 ft | 6 kts | 40° |
| 2026-04-11 11:40 | -3.43853 | 114.75921 | 70 ft | 5 kts | 9° |
| 2026-04-11 11:40 | -3.43836 | 114.75924 | 75 ft | 1 kts | 10° |
| 2026-04-11 11:40 | -3.43829 | 114.75926 | 72 ft | 1 kts | 10° |
| 2026-04-11 11:41 | -3.43823 | 114.75927 | 70 ft | 1 kts | 10° |
| 2026-04-11 11:41 | -3.43822 | 114.75927 | 70 ft | 0 kts | 10° |